Wilson Cadiz — 8PSY — position and weather

sailwx.info

Track history (hours):
 
Tides and Currents Weather Stations Pressure Air Temp Water Temp Dewpoint Dewpoint Depression Visibility Wind Speed Wind Dir Waves Ship Positions

Wilson Cadiz

Last reported at 2015-Jul-29 23:30 UTC. Time now 2015-Jul-30 06:04 UTC.
Position N 57°50' E 010°17'.

Length 100 m; draft 5.4 m.

Type: Cargo ship. MMSI: 314216000.

Date/timePositionNaut miles runAvg speedWind from/ knotsBaromVisibWave heightAir tempDewpointWater temp
2015-Jul-29 23:30N 57°50' E 010°17'10 9.7
2015-Jul-29 22:31N 57°49' E 010°35'9 9.1
2015-Jul-29 21:33N 57°48' E 010°51'1010.0
2015-Jul-29 20:33N 57°40' E 011°04'1110.5
2015-Jul-29 19:33N 57°33' E 011°18'1110.8
2015-Jul-29 18:33N 57°25' E 011°32'1010.3
2015-Jul-29 17:33N 57°18' E 011°45'1110.6
2015-Jul-29 16:33N 57°09' E 011°56'1110.8
2015-Jul-29 15:33N 56°59' E 012°01'1110.6
2015-Jul-29 14:33N 56°49' E 012°08'4 4.5
2015-Jul-29 13:33N 56°44' E 012°09'10 9.8
2015-Jul-29 12:33N 56°35' E 012°13'1110.4
2015-Jul-29 11:28N 56°24' E 012°18'1010.8
2015-Jul-29 10:34N 56°14' E 012°22'1111.1
2015-Jul-29 09:33N 56°06' E 012°35'1111.4
2015-Jul-29 08:33N 55°55' E 012°44'1110.7
2015-Jul-29 07:33N 55°45' E 012°42'1211.5
2015-Jul-29 06:33N 55°33' E 012°42'1110.9
2015-Jul-29 05:33N 55°22' E 012°41'9 8.7
2015-Jul-29 04:33N 55°16' E 012°52'9 8.6
2015-Jul-29 03:33N 55°10' E 013°04'94 8.6
2015-Jul-28 16:32N 53°48' E 014°22'1110.7
2015-Jul-28 15:33N 53°39' E 014°33'10 9.9
2015-Jul-28 14:33N 53°30' E 014°37'5 5.5
2015-Jul-28 13:33N 53°24' E 014°36'0 0.0
2015-Jul-28 12:33N 53°24' E 014°36'0 0.0
2015-Jul-28 11:33N 53°24' E 014°36'0 0.0
2015-Jul-28 10:33N 53°24' E 014°36'0 0.0
2015-Jul-28 09:33N 53°24' E 014°36'0 0.0
2015-Jul-28 08:33N 53°24' E 014°36'0 0.0
2015-Jul-28 07:33N 53°24' E 014°36'0 0.0
2015-Jul-28 06:33N 53°24' E 014°36'0 0.0
2015-Jul-28 05:33N 53°24' E 014°36'0 0.0
2015-Jul-28 04:33N 53°24' E 014°36'0 0.0
2015-Jul-28 03:33N 53°24' E 014°36'0 0.0
2015-Jul-28 02:33N 53°24' E 014°36'0 0.0
2015-Jul-28 01:33N 53°24' E 014°36'0 0.0
2015-Jul-28 00:33N 53°24' E 014°36'0 0.0
2015-Jul-27 23:33N 53°24' E 014°36'0 0.0
2015-Jul-27 22:33N 53°24' E 014°36'0 0.0
2015-Jul-27 21:33N 53°24' E 014°36'0 0.0
2015-Jul-27 20:33N 53°24' E 014°36'4 4.2
2015-Jul-27 19:33N 53°29' E 014°37'0 0.0
2015-Jul-27 18:34N 53°29' E 014°37'0 0.0
2015-Jul-27 17:34N 53°29' E 014°37'0 0.0
2015-Jul-27 16:34N 53°29' E 014°37'0 0.0
2015-Jul-27 15:34N 53°29' E 014°37'0 0.0
2015-Jul-27 14:34N 53°29' E 014°37'0 0.0
2015-Jul-27 13:34N 53°29' E 014°37'0 0.0
2015-Jul-27 12:33N 53°29' E 014°37'0 0.0
2015-Jul-27 11:34N 53°29' E 014°37'0 0.0
2015-Jul-27 10:33N 53°29' E 014°37'0 0.0
2015-Jul-27 09:33N 53°29' E 014°37'7 7.1
2015-Jul-27 08:33N 53°36' E 014°36'1211.9
2015-Jul-27 07:33N 53°46' E 014°24'6210.2
2015-Jul-27 01:32N 54°41' E 013°37'1212.6
2015-Jul-27 00:33N 54°51' E 013°27'2912.6
2015-Jul-26 22:14N 55°14' E 012°54'913.0
2015-Jul-26 21:33N 55°17' E 012°39'1211.9
2015-Jul-26 20:33N 55°29' E 012°41'1313.1
2015-Jul-26 19:33N 55°42' E 012°41'1313.0
2015-Jul-26 18:34N 55°55' E 012°38'1211.9
2015-Jul-26 17:33N 56°07' E 012°31'1313.5
2015-Jul-26 16:33N 56°14' E 012°12'1411.1
2015-Jul-26 15:16N 56°27' E 011°59'811.7
2015-Jul-26 14:33N 56°35' E 011°56'1211.8
2015-Jul-26 13:34N 56°47' E 011°51'1212.4
2015-Jul-26 12:33N 56°58' E 011°43'1212.4
2015-Jul-26 11:33N 57°10' E 011°36'1312.9
2015-Jul-26 10:34N 57°22' E 011°27'1312.8
2015-Jul-26 09:34N 57°32' E 011°13'1212.2
2015-Jul-26 08:33N 57°41' E 010°58'1212.4
2015-Jul-26 07:33N 57°53' E 010°49'1312.9
2015-Jul-26 06:33N 58°04' E 010°38'1313.1
2015-Jul-26 05:33N 58°16' E 010°27'1313.1
2015-Jul-26 04:33N 58°28' E 010°15'44 2.6
2015-Jul-25 11:27N 59°08' E 009°37'0 0.0
2015-Jul-25 03:06N 59°08' E 009°37'0 0.0
2015-Jul-25 00:30N 59°08' E 009°37'0 0.0
2015-Jul-24 23:30N 59°08' E 009°37'0 0.0
2015-Jul-24 18:06N 59°08' E 009°37'0 0.0
2015-Jul-24 12:33N 59°08' E 009°37'1 0.0
2015-Jul-22 19:28N 59°07' E 009°38'0 0.0
2015-Jul-22 14:31N 59°07' E 009°38'0 0.0
2015-Jul-22 09:10N 59°07' E 009°38'0 0.0
2015-Jul-22 05:22N 59°07' E 009°38'0 0.1
2015-Jul-22 04:33N 59°07' E 009°38'9 8.0
2015-Jul-22 03:28N 58°59' E 009°47'23111.0
2015-Jul-21 06:33N 55°23' E 007°22'1211.6
2015-Jul-21 05:33N 55°11' E 007°24'1211.8
2015-Jul-21 04:33N 54°59' E 007°26'1211.9
2015-Jul-21 03:33N 54°48' E 007°28'1211.9
2015-Jul-21 02:33N 54°36' E 007°30'1211.6
2015-Jul-21 01:33N 54°24' E 007°32'1110.9
2015-Jul-21 00:33N 54°14' E 007°37'1010.4
2015-Jul-20 23:33N 54°07' E 007°51'1110.6
2015-Jul-20 22:33N 54°01' E 008°06'1010.1
2015-Jul-20 21:33N 53°60' E 008°23'1312.7
2015-Jul-20 20:33N 53°54' E 008°42'1313.3
2015-Jul-20 19:33N 53°53' E 009°05'1111.4
2015-Jul-20 18:33N 53°48' E 009°23'1111.1
2015-Jul-20 17:33N 53°39' E 009°32'10 9.6
2015-Jul-20 16:33N 53°34' E 009°46'8 7.7
2015-Jul-20 15:33N 53°30' E 009°57'0 0.2
2015-Jul-20 14:32N 53°30' E 009°57'0 0.0
2015-Jul-20 13:32N 53°30' E 009°57'0 0.0
2015-Jul-20 12:29N 53°30' E 009°57'0 0.0
2015-Jul-20 11:29N 53°30' E 009°57'0 0.0
2015-Jul-20 10:32N 53°30' E 009°57'0 0.0
2015-Jul-20 09:32N 53°30' E 009°57'0 0.0
2015-Jul-20 08:32N 53°30' E 009°57'0 0.0
2015-Jul-20 07:32N 53°30' E 009°57'0 0.0
2015-Jul-20 06:32N 53°30' E 009°57'0 0.0
2015-Jul-20 05:32N 53°30' E 009°57'0 0.0
2015-Jul-20 04:32N 53°30' E 009°57'0 0.0
2015-Jul-20 03:32N 53°30' E 009°57'0 0.0
2015-Jul-20 02:32N 53°30' E 009°57'0 0.0
2015-Jul-20 01:32N 53°30' E 009°57'0 0.0
2015-Jul-20 00:32N 53°30' E 009°57'0 0.0
2015-Jul-19 23:32N 53°30' E 009°57'  
Track history (hours):
 
Tides and Currents Weather Stations Pressure Air Temp Water Temp Dewpoint Dewpoint Depression Visibility Wind Speed Wind Dir Waves Ship Positions

Wilson Cadiz

Last reported at 2015-Jul-29 23:30 UTC. Time now 2015-Jul-30 06:04 UTC.
Position N 57°50' E 010°17'.

Length 100 m; draft 5.4 m.

Type: Cargo ship. MMSI: 314216000.

Date/timePositionNaut miles runAvg speedWind from/ knotsBaromVisibWave heightAir tempDewpointWater temp
2015-Jul-29 23:30N 57°50' E 010°17'10 9.7
2015-Jul-29 22:31N 57°49' E 010°35'9 9.1
2015-Jul-29 21:33N 57°48' E 010°51'1010.0
2015-Jul-29 20:33N 57°40' E 011°04'1110.5
2015-Jul-29 19:33N 57°33' E 011°18'1110.8
2015-Jul-29 18:33N 57°25' E 011°32'1010.3
2015-Jul-29 17:33N 57°18' E 011°45'1110.6
2015-Jul-29 16:33N 57°09' E 011°56'1110.8
2015-Jul-29 15:33N 56°59' E 012°01'1110.6
2015-Jul-29 14:33N 56°49' E 012°08'4 4.5
2015-Jul-29 13:33N 56°44' E 012°09'10 9.8
2015-Jul-29 12:33N 56°35' E 012°13'1110.4
2015-Jul-29 11:28N 56°24' E 012°18'1010.8
2015-Jul-29 10:34N 56°14' E 012°22'1111.1
2015-Jul-29 09:33N 56°06' E 012°35'1111.4
2015-Jul-29 08:33N 55°55' E 012°44'1110.7
2015-Jul-29 07:33N 55°45' E 012°42'1211.5
2015-Jul-29 06:33N 55°33' E 012°42'1110.9
2015-Jul-29 05:33N 55°22' E 012°41'9 8.7
2015-Jul-29 04:33N 55°16' E 012°52'9 8.6
2015-Jul-29 03:33N 55°10' E 013°04'94 8.6
2015-Jul-28 16:32N 53°48' E 014°22'1110.7
2015-Jul-28 15:33N 53°39' E 014°33'10 9.9
2015-Jul-28 14:33N 53°30' E 014°37'5 5.5
2015-Jul-28 13:33N 53°24' E 014°36'0 0.0
2015-Jul-28 12:33N 53°24' E 014°36'0 0.0
2015-Jul-28 11:33N 53°24' E 014°36'0 0.0
2015-Jul-28 10:33N 53°24' E 014°36'0 0.0
2015-Jul-28 09:33N 53°24' E 014°36'0 0.0
2015-Jul-28 08:33N 53°24' E 014°36'0 0.0
2015-Jul-28 07:33N 53°24' E 014°36'0 0.0
2015-Jul-28 06:33N 53°24' E 014°36'0 0.0
2015-Jul-28 05:33N 53°24' E 014°36'0 0.0
2015-Jul-28 04:33N 53°24' E 014°36'0 0.0
2015-Jul-28 03:33N 53°24' E 014°36'0 0.0
2015-Jul-28 02:33N 53°24' E 014°36'0 0.0
2015-Jul-28 01:33N 53°24' E 014°36'0 0.0
2015-Jul-28 00:33N 53°24' E 014°36'0 0.0
2015-Jul-27 23:33N 53°24' E 014°36'0 0.0
2015-Jul-27 22:33N 53°24' E 014°36'0 0.0
2015-Jul-27 21:33N 53°24' E 014°36'0 0.0
2015-Jul-27 20:33N 53°24' E 014°36'4 4.2
2015-Jul-27 19:33N 53°29' E 014°37'0 0.0
2015-Jul-27 18:34N 53°29' E 014°37'0 0.0
2015-Jul-27 17:34N 53°29' E 014°37'0 0.0
2015-Jul-27 16:34N 53°29' E 014°37'0 0.0
2015-Jul-27 15:34N 53°29' E 014°37'0 0.0
2015-Jul-27 14:34N 53°29' E 014°37'0 0.0
2015-Jul-27 13:34N 53°29' E 014°37'0 0.0
2015-Jul-27 12:33N 53°29' E 014°37'0 0.0
2015-Jul-27 11:34N 53°29' E 014°37'0 0.0
2015-Jul-27 10:33N 53°29' E 014°37'0 0.0
2015-Jul-27 09:33N 53°29' E 014°37'7 7.1
2015-Jul-27 08:33N 53°36' E 014°36'1211.9
2015-Jul-27 07:33N 53°46' E 014°24'6210.2
2015-Jul-27 01:32N 54°41' E 013°37'1212.6
2015-Jul-27 00:33N 54°51' E 013°27'2912.6
2015-Jul-26 22:14N 55°14' E 012°54'913.0
2015-Jul-26 21:33N 55°17' E 012°39'1211.9
2015-Jul-26 20:33N 55°29' E 012°41'1313.1
2015-Jul-26 19:33N 55°42' E 012°41'1313.0
2015-Jul-26 18:34N 55°55' E 012°38'1211.9
2015-Jul-26 17:33N 56°07' E 012°31'1313.5
2015-Jul-26 16:33N 56°14' E 012°12'1411.1
2015-Jul-26 15:16N 56°27' E 011°59'811.7
2015-Jul-26 14:33N 56°35' E 011°56'1211.8
2015-Jul-26 13:34N 56°47' E 011°51'1212.4
2015-Jul-26 12:33N 56°58' E 011°43'1212.4
2015-Jul-26 11:33N 57°10' E 011°36'1312.9
2015-Jul-26 10:34N 57°22' E 011°27'1312.8
2015-Jul-26 09:34N 57°32' E 011°13'1212.2
2015-Jul-26 08:33N 57°41' E 010°58'1212.4
2015-Jul-26 07:33N 57°53' E 010°49'1312.9
2015-Jul-26 06:33N 58°04' E 010°38'1313.1
2015-Jul-26 05:33N 58°16' E 010°27'1313.1
2015-Jul-26 04:33N 58°28' E 010°15'44 2.6
2015-Jul-25 11:27N 59°08' E 009°37'0 0.0
2015-Jul-25 03:06N 59°08' E 009°37'0 0.0
2015-Jul-25 00:30N 59°08' E 009°37'0 0.0
2015-Jul-24 23:30N 59°08' E 009°37'0 0.0
2015-Jul-24 18:06N 59°08' E 009°37'0 0.0
2015-Jul-24 12:33N 59°08' E 009°37'1 0.0
2015-Jul-22 19:28N 59°07' E 009°38'0 0.0
2015-Jul-22 14:31N 59°07' E 009°38'0 0.0
2015-Jul-22 09:10N 59°07' E 009°38'0 0.0
2015-Jul-22 05:22N 59°07' E 009°38'0 0.1
2015-Jul-22 04:33N 59°07' E 009°38'9 8.0
2015-Jul-22 03:28N 58°59' E 009°47'23111.0
2015-Jul-21 06:33N 55°23' E 007°22'1211.6
2015-Jul-21 05:33N 55°11' E 007°24'1211.8
2015-Jul-21 04:33N 54°59' E 007°26'1211.9
2015-Jul-21 03:33N 54°48' E 007°28'1211.9
2015-Jul-21 02:33N 54°36' E 007°30'1211.6
2015-Jul-21 01:33N 54°24' E 007°32'1110.9
2015-Jul-21 00:33N 54°14' E 007°37'1010.4
2015-Jul-20 23:33N 54°07' E 007°51'1110.6
2015-Jul-20 22:33N 54°01' E 008°06'1010.1
2015-Jul-20 21:33N 53°60' E 008°23'1312.7
2015-Jul-20 20:33N 53°54' E 008°42'1313.3
2015-Jul-20 19:33N 53°53' E 009°05'1111.4
2015-Jul-20 18:33N 53°48' E 009°23'1111.1
2015-Jul-20 17:33N 53°39' E 009°32'10 9.6
2015-Jul-20 16:33N 53°34' E 009°46'8 7.7
2015-Jul-20 15:33N 53°30' E 009°57'0 0.2
2015-Jul-20 14:32N 53°30' E 009°57'0 0.0
2015-Jul-20 13:32N 53°30' E 009°57'0 0.0
2015-Jul-20 12:29N 53°30' E 009°57'0 0.0
2015-Jul-20 11:29N 53°30' E 009°57'0 0.0
2015-Jul-20 10:32N 53°30' E 009°57'0 0.0
2015-Jul-20 09:32N 53°30' E 009°57'0 0.0
2015-Jul-20 08:32N 53°30' E 009°57'0 0.0
2015-Jul-20 07:32N 53°30' E 009°57'0 0.0
2015-Jul-20 06:32N 53°30' E 009°57'0 0.0
2015-Jul-20 05:32N 53°30' E 009°57'0 0.0
2015-Jul-20 04:32N 53°30' E 009°57'0 0.0
2015-Jul-20 03:32N 53°30' E 009°57'0 0.0
2015-Jul-20 02:32N 53°30' E 009°57'0 0.0
2015-Jul-20 01:32N 53°30' E 009°57'0 0.0
2015-Jul-20 00:32N 53°30' E 009°57'0 0.0
2015-Jul-19 23:32N 53°30' E 009°57'  

Dump ship's entire track history